Oklahoma City, OK (73131)

7:27 PM CDT on August 31, 2015 (GMT -0500)
Burendale Heights North | | Change Station
CLOSE
Current Station
Personal Weather Station
Location: Oklahoma City, OK
Elevation: 1131 ft
Nearby Weather Stations

Elev 1131 ft 35.59 °N, 97.46 °W | Updated 2 seconds ago

Clear
Clear
87.8 °F
Feels Like 90 °F
N
0.0
Wind Variable Wind from NNW
Gusts 0.0 mph

Today
High -- | Low -- °F
--% Chance of Precip.
Yesterday
High -- | Low -- °F
Precip. -- in
7:01 AM 7:58 PM
Waning Gibbous, 93% visible
Pressure 29.89 in
Visibility 10.0 miles
Clouds Clear
Heat Index 90 °F
Dew Point 66 °F
Humidity 48%
Rainfall 0.00 in
Snow Depth Not available.
UV 0.0 out of 12
Pollen 9.80 out of 12
Air Quality Not available.
Flu Activity Not available.
METAR KPWA 312353Z 18013KT 10SM CLR 32/16 A2994 RMK AO2 SLP121 T03220156 10350 20322 56005
Pressure 29.89 in
Visibility 10.0 miles
Clouds Clear
Heat Index 90 °F
Dew Point 66 °F
Humidity 48%
Rainfall 0.00 in
Snow Depth Not available.
UV 0.0 out of 12
Pollen 9.80 out of 12
Air Quality Not available.
Flu Activity Not available.
METAR KPWA 312353Z 18013KT 10SM CLR 32/16 A2994 RMK AO2 SLP121 T03220156 10350 20322 56005

10-Day Weather Forecast

×

Almanac

Astronomy

Aug. 31, 2015 Rise Set
Actual Time
Civil Twilight
Nautical Twilight
Astronomical Twilight
Moon
Length of Visible Light
Length of Day
Tomorrow will be .
, % of the Moon is Illuminated

Today's Extremes

State Highs State Lows

Community

WunderPhotos

Upload Photos

1,851,405 photos uploaded!

WunderBlogs® & News

Nearby

Air Quality

  Air Quality AQ Index Pollutant
Not available.

Snow Depth

Station Depth Elevation

Earthquake Activity

City Distance Mag. Time & Date
Minimum magnitude displayed is 2.5.

Coastal Water Temperatures

Place Temperature

Stations

Nearby Weather Stations

Station Location Temp. Windchill Dew Point Humidity Wind Precip. Elev Updated Type